Terminal Aerodrome Forecast
Issued by NWS

Home | Current Version | Previous Version | Text Only | Print | Product List | Glossary On
Versions: 1 2 3 4 5 6 7 8 9 10 11 12 13 14 15 16 17 18 19 20 21
000
FTUS45 KBYZ 220227 AAA
TAFLVM
TAF AMD
KLVM 220227Z 2202/2224 28010G20KT P6SM SKC
     FM220500 22032G45KT P6SM SCT100 BKN200
     FM221200 24033G45KT P6SM VCSH BKN070
     FM221900 24014G23KT 4SM -SN BR SCT025 BKN050
     FM222200 27015G30KT P6SM VCSH BKN070=

USA.gov is the U.S. government's official web portal to all federal, state and local government web resources and services.